Time;durP1;ratioP1;P1;durP2;ratioP2;P2;SDS_P1;SDS_P2;PMS_P1;PMS_P2;Temp;Humidity;BMP_temperature;BMP_pressure;BME280_temperature;BME280_humidity;BME280_pressure;Samples;Min_cycle;Max_cycle;Signal;HPM_P1;HPM_P2
2022/08/02 00:01:19;;;;;;;2.97;2.08;;;;;;;;;;4986941;28;20085;-51
2022/08/02 00:03:44;;;;;;;2.65;2.33;;;;;;;;;;4986453;28;20207;-52
2022/08/02 00:06:09;;;;;;;2.38;1.98;;;;;;;;;;4986903;28;20073;-49
2022/08/02 00:08:35;;;;;;;6.03;2.42;;;;;;;;;;4986638;28;20085;-52
2022/08/02 00:11:00;;;;;;;5.63;3.20;;;;;;;;;;4986839;28;20105;-54
2022/08/02 00:13:25;;;;;;;5.00;3.38;;;;;;;;;;4986832;28;20046;-49
2022/08/02 00:15:51;;;;;;;8.23;3.17;;;;;;;;;;4985775;28;20097;-53
2022/08/02 00:18:16;;;;;;;2.10;1.75;;;;;;;;;;4986993;28;20590;-52
2022/08/02 00:20:41;;;;;;;3.05;2.08;;;;;;;;;;4986493;28;20800;-52
2022/08/02 00:23:07;;;;;;;4.25;1.92;;;;;;;;;;4986543;28;20064;-50
2022/08/02 00:25:32;;;;;;;3.40;2.10;;;;;;;;;;4986489;28;20057;-50
2022/08/02 00:27:57;;;;;;;3.38;3.03;;;;;;;;;;4986360;28;20046;-48
2022/08/02 00:30:23;;;;;;;2.80;2.10;;;;;;;;;;4986759;28;20085;-52
2022/08/02 00:32:48;;;;;;;2.80;2.17;;;;;;;;;;4985833;28;20091;-51
2022/08/02 00:35:13;;;;;;;6.18;2.58;;;;;;;;;;4984444;28;20058;-49
2022/08/02 00:37:39;;;;;;;6.65;2.60;;;;;;;;;;4986333;28;20066;-51
2022/08/02 00:40:05;;;;;;;2.70;1.85;;;;;;;;;;4986084;28;20050;-50
2022/08/02 00:42:30;;;;;;;9.90;2.50;;;;;;;;;;4985912;28;20054;-51
2022/08/02 00:44:57;;;;;;;2.33;1.70;;;;;;;;;;4985962;28;20049;-48
2022/08/02 00:47:23;;;;;;;3.35;2.17;;;;;;;;;;4985543;28;20517;-52
2022/08/02 00:49:48;;;;;;;2.42;1.85;;;;;;;;;;4985197;28;20061;-53
2022/08/02 00:52:13;;;;;;;2.53;1.98;;;;;;;;;;4985710;28;20046;-49
2022/08/02 00:54:39;;;;;;;2.63;1.85;;;;;;;;;;4985973;28;20057;-47
2022/08/02 00:57:04;;;;;;;2.65;2.38;;;;;;;;;;4985092;28;20114;-52
2022/08/02 00:59:30;;;;;;;3.78;3.03;;;;;;;;;;4985396;28;20501;-51
2022/08/02 01:01:55;;;;;;;5.60;2.90;;;;;;;;;;4985618;28;20054;-54
2022/08/02 01:04:20;;;;;;;3.83;2.35;;;;;;;;;;4985547;28;20043;-49
2022/08/02 01:06:46;;;;;;;5.60;2.28;;;;;;;;;;4984069;28;20518;-50
2022/08/02 01:09:11;;;;;;;2.45;1.95;;;;;;;;;;4985772;28;20054;-51
2022/08/02 01:11:36;;;;;;;4.30;2.80;;;;;;;;;;4985317;28;20046;-48
2022/08/02 01:14:04;;;;;;;3.00;2.70;;;;;;;;;;4985460;28;20041;-50
2022/08/02 01:16:31;;;;;;;3.80;3.05;;;;;;;;;;4985691;28;20401;-50
2022/08/02 01:19:00;;;;;;;4.75;3.13;;;;;;;;;;4986091;28;20068;-53
2022/08/02 01:21:37;;;;;;;10.07;3.35;;;;;;;;;;4985802;28;20042;-51
2022/08/02 01:24:20;;;;;;;3.47;2.95;;;;;;;;;;4984579;28;20050;-49
2022/08/02 01:26:49;;;;;;;3.55;2.40;;;;;;;;;;4985261;28;20046;-50
2022/08/02 01:29:33;;;;;;;4.38;2.67;;;;;;;;;;4985752;28;20054;-49
2022/08/02 01:32:09;;;;;;;4.07;2.72;;;;;;;;;;4985290;28;20042;-51
2022/08/02 01:34:35;;;;;;;4.38;3.00;;;;;;;;;;4984877;28;20046;-50
2022/08/02 01:37:10;;;;;;;3.60;2.58;;;;;;;;;;4985376;28;20049;-49
2022/08/02 01:39:37;;;;;;;2.08;1.88;;;;;;;;;;4985138;28;20057;-53
2022/08/02 01:42:03;;;;;;;3.13;2.72;;;;;;;;;;4985001;28;20058;-48
2022/08/02 01:44:32;;;;;;;4.28;3.50;;;;;;;;;;4986083;28;20054;-51
2022/08/02 01:46:59;;;;;;;5.47;3.22;;;;;;;;;;4986010;28;20185;-51
2022/08/02 01:49:26;;;;;;;2.50;2.30;;;;;;;;;;4985562;28;20046;-49
2022/08/02 01:54:37;;;;;;;3.65;3.35;;;;;;;;;;4985608;28;20313;-49
2022/08/02 01:57:04;;;;;;;3.95;2.38;;;;;;;;;;4985909;28;20054;-49
2022/08/02 01:59:30;;;;;;;3.80;3.40;;;;;;;;;;4987154;28;20038;-48
2022/08/02 02:01:57;;;;;;;4.85;2.72;;;;;;;;;;4989167;28;20045;-47
2022/08/02 02:04:23;;;;;;;6.60;3.65;;;;;;;;;;4989091;28;20051;-50
2022/08/02 02:06:50;;;;;;;5.55;4.10;;;;;;;;;;4988762;28;20161;-52
2022/08/02 02:09:16;;;;;;;2.97;2.38;;;;;;;;;;4988512;28;20041;-51
2022/08/02 02:11:43;;;;;;;5.40;2.55;;;;;;;;;;4988862;28;20046;-51
2022/08/02 02:14:10;;;;;;;9.15;2.47;;;;;;;;;;4989180;28;20050;-49
2022/08/02 02:16:36;;;;;;;4.32;2.42;;;;;;;;;;4988645;28;20652;-50
2022/08/02 02:19:02;;;;;;;4.13;2.40;;;;;;;;;;4988640;28;20121;-49
2022/08/02 02:21:27;;;;;;;4.63;3.63;;;;;;;;;;4987846;28;20123;-49
2022/08/02 02:23:53;;;;;;;4.63;4.22;;;;;;;;;;4980240;28;20058;-50
2022/08/02 02:26:18;;;;;;;4.35;3.65;;;;;;;;;;4988560;28;20061;-49
2022/08/02 02:28:45;;;;;;;3.97;3.55;;;;;;;;;;4988879;28;20058;-49
2022/08/02 02:31:13;;;;;;;5.05;4.10;;;;;;;;;;4988556;28;20057;-50
2022/08/02 02:33:59;;;;;;;3.35;3.05;;;;;;;;;;4988717;28;20058;-50
2022/08/02 02:36:24;;;;;;;4.28;3.47;;;;;;;;;;4986114;28;20073;-48
2022/08/02 02:38:50;;;;;;;3.20;2.60;;;;;;;;;;4987658;28;20124;-47
2022/08/02 02:41:16;;;;;;;3.63;3.33;;;;;;;;;;4987279;28;20054;-48
2022/08/02 02:43:42;;;;;;;2.72;2.10;;;;;;;;;;4988200;28;20042;-49
2022/08/02 02:46:08;;;;;;;5.57;2.92;;;;;;;;;;4988528;28;20124;-48
2022/08/02 02:48:35;;;;;;;3.60;3.10;;;;;;;;;;4988386;28;20045;-53
2022/08/02 02:51:02;;;;;;;7.97;2.70;;;;;;;;;;4988213;28;20042;-52
2022/08/02 02:53:28;;;;;;;3.50;2.88;;;;;;;;;;4988549;28;20050;-52
2022/08/02 02:55:54;;;;;;;4.75;3.25;;;;;;;;;;4987773;28;20041;-53
2022/08/02 02:58:19;;;;;;;6.47;2.88;;;;;;;;;;4987544;28;20058;-50
2022/08/02 03:03:29;;;;;;;2.63;2.30;;;;;;;;;;4986958;28;20117;-50
2022/08/02 03:05:55;;;;;;;4.30;3.03;;;;;;;;;;4988405;28;20046;-49
2022/08/02 03:08:20;;;;;;;4.10;3.13;;;;;;;;;;4988179;28;20046;-52
2022/08/02 03:10:46;;;;;;;2.40;2.20;;;;;;;;;;4987862;28;20046;-52
2022/08/02 03:13:11;;;;;;;10.88;2.97;;;;;;;;;;4987823;28;20057;-50
2022/08/02 03:15:37;;;;;;;4.72;2.63;;;;;;;;;;4987654;28;20051;-50
2022/08/02 03:18:02;;;;;;;2.80;1.77;;;;;;;;;;4987474;28;20050;-49
2022/08/02 03:20:28;;;;;;;5.47;2.70;;;;;;;;;;4985723;28;20050;-51
2022/08/02 03:22:53;;;;;;;14.88;2.58;;;;;;;;;;4987375;28;20085;-49
2022/08/02 03:25:18;;;;;;;5.18;3.03;;;;;;;;;;4985753;28;21673;-50
2022/08/02 03:27:44;;;;;;;4.45;3.08;;;;;;;;;;4987749;28;20789;-50
2022/08/02 03:30:10;;;;;;;5.80;3.30;;;;;;;;;;4986854;28;20042;-49
2022/08/02 03:32:37;;;;;;;2.20;1.70;;;;;;;;;;4987515;28;20774;-51
2022/08/02 03:35:04;;;;;;;3.63;2.28;;;;;;;;;;4983825;28;20057;-53
2022/08/02 03:37:30;;;;;;;10.70;2.22;;;;;;;;;;4987389;28;20049;-53
2022/08/02 03:39:57;;;;;;;1.75;1.38;;;;;;;;;;4987706;28;20517;-47
2022/08/02 03:42:22;;;;;;;4.20;2.60;;;;;;;;;;4987120;28;20612;-45
2022/08/02 03:44:48;;;;;;;3.00;2.55;;;;;;;;;;4987378;28;20506;-48
2022/08/02 03:47:14;;;;;;;3.90;3.15;;;;;;;;;;4987359;28;20741;-45
2022/08/02 03:49:41;;;;;;;3.30;2.65;;;;;;;;;;4987516;28;20053;-50
2022/08/02 03:52:06;;;;;;;4.10;3.70;;;;;;;;;;4987170;28;20057;-50
2022/08/02 03:54:32;;;;;;;3.20;2.90;;;;;;;;;;4987562;28;20050;-50
2022/08/02 03:56:57;;;;;;;3.50;2.92;;;;;;;;;;4987328;28;20528;-52
2022/08/02 03:59:22;;;;;;;4.63;3.97;;;;;;;;;;4987666;28;20422;-49
2022/08/02 04:01:48;;;;;;;3.63;3.20;;;;;;;;;;4987215;28;20078;-45
2022/08/02 04:04:13;;;;;;;4.32;3.55;;;;;;;;;;4986910;28;20138;-51
2022/08/02 04:06:38;;;;;;;3.67;2.97;;;;;;;;;;4986921;28;20125;-50
2022/08/02 04:09:04;;;;;;;3.90;3.08;;;;;;;;;;4987429;28;20447;-49
2022/08/02 04:11:29;;;;;;;2.88;2.58;;;;;;;;;;4987096;28;20145;-49
2022/08/02 04:13:55;;;;;;;3.67;3.28;;;;;;;;;;4987437;28;20054;-50
2022/08/02 04:16:22;;;;;;;6.65;3.17;;;;;;;;;;4986895;28;20640;-48
2022/08/02 04:19:01;;;;;;;3.85;2.85;;;;;;;;;;4987294;28;20752;-49
2022/08/02 04:21:30;;;;;;;6.80;3.60;;;;;;;;;;4986133;28;20105;-49
2022/08/02 04:23:56;;;;;;;9.38;3.50;;;;;;;;;;4986236;28;20080;-54
2022/08/02 04:26:21;;;;;;;4.70;3.00;;;;;;;;;;4987159;28;20046;-51
2022/08/02 04:28:47;;;;;;;3.30;2.78;;;;;;;;;;4986577;28;20097;-52
2022/08/02 04:31:13;;;;;;;3.53;2.65;;;;;;;;;;4987160;28;20050;-51
2022/08/02 04:33:39;;;;;;;4.30;3.53;;;;;;;;;;4986634;28;20145;-49
2022/08/02 04:36:05;;;;;;;2.42;1.80;;;;;;;;;;4984977;28;20058;-45
2022/08/02 04:38:30;;;;;;;3.55;3.03;;;;;;;;;;4987164;28;20062;-46
2022/08/02 04:40:56;;;;;;;5.78;3.00;;;;;;;;;;4986421;28;20124;-47
2022/08/02 04:43:22;;;;;;;4.50;2.83;;;;;;;;;;4986501;28;20038;-46
2022/08/02 04:45:48;;;;;;;5.93;2.72;;;;;;;;;;4986027;28;20038;-44
2022/08/02 04:48:14;;;;;;;2.97;2.15;;;;;;;;;;4984883;28;20054;-49
2022/08/02 04:50:39;;;;;;;7.53;2.78;;;;;;;;;;4985800;28;20053;-46
2022/08/02 04:53:04;;;;;;;9.25;3.25;;;;;;;;;;4985908;28;20046;-46
2022/08/02 04:55:30;;;;;;;4.82;2.20;;;;;;;;;;4984199;28;20049;-45
2022/08/02 04:57:56;;;;;;;3.50;3.20;;;;;;;;;;4986321;28;20046;-46
2022/08/02 05:00:22;;;;;;;14.05;3.75;;;;;;;;;;4985087;28;20132;-49
2022/08/02 05:02:48;;;;;;;3.28;2.47;;;;;;;;;;4986271;28;20142;-47
2022/08/02 05:05:13;;;;;;;6.65;2.67;;;;;;;;;;4986031;28;20043;-52
2022/08/02 05:07:39;;;;;;;3.60;2.90;;;;;;;;;;4986144;28;20453;-47
2022/08/02 05:10:04;;;;;;;9.23;3.05;;;;;;;;;;4985831;28;20054;-47
2022/08/02 05:12:29;;;;;;;3.88;2.70;;;;;;;;;;4986185;28;20042;-45
2022/08/02 05:14:55;;;;;;;5.18;4.47;;;;;;;;;;4985850;28;20054;-48
2022/08/02 05:17:20;;;;;;;21.15;3.88;;;;;;;;;;4986484;28;20096;-56
2022/08/02 05:19:45;;;;;;;6.18;3.40;;;;;;;;;;4985269;28;20058;-46
2022/08/02 05:22:11;;;;;;;5.78;3.42;;;;;;;;;;4985367;28;20465;-46
2022/08/02 05:24:36;;;;;;;5.22;2.92;;;;;;;;;;4986339;28;20610;-52
2022/08/02 05:27:01;;;;;;;4.85;4.35;;;;;;;;;;4985366;28;20092;-47
2022/08/02 05:29:27;;;;;;;17.05;5.03;;;;;;;;;;4985743;28;20100;-46
2022/08/02 05:31:53;;;;;;;3.33;2.30;;;;;;;;;;4985866;28;20085;-49
2022/08/02 05:34:18;;;;;;;11.45;3.85;;;;;;;;;;4988289;28;20050;-47
2022/08/02 05:36:44;;;;;;;4.60;3.58;;;;;;;;;;4988409;28;20053;-51
2022/08/02 05:39:09;;;;;;;3.92;2.65;;;;;;;;;;4989795;28;20093;-49
2022/08/02 05:41:34;;;;;;;3.40;3.08;;;;;;;;;;4989629;28;20527;-49
2022/08/02 05:44:00;;;;;;;10.90;4.00;;;;;;;;;;4987830;28;20077;-52
2022/08/02 05:46:25;;;;;;;4.43;3.20;;;;;;;;;;4989300;28;20050;-48
2022/08/02 05:48:51;;;;;;;6.15;2.80;;;;;;;;;;4989079;28;20525;-49
2022/08/02 05:51:27;;;;;;;8.65;4.22;;;;;;;;;;4989787;28;20046;-46
2022/08/02 05:54:05;;;;;;;11.68;4.68;;;;;;;;;;4989592;28;20078;-52
2022/08/02 05:56:40;;;;;;;5.95;3.50;;;;;;;;;;4989810;28;20054;-46
2022/08/02 05:59:08;;;;;;;3.42;2.78;;;;;;;;;;4987663;28;20069;-48
2022/08/02 06:01:36;;;;;;;7.80;3.97;;;;;;;;;;4988239;28;20046;-48
2022/08/02 06:04:04;;;;;;;12.57;3.28;;;;;;;;;;4989120;28;20050;-46
2022/08/02 06:06:31;;;;;;;6.22;3.08;;;;;;;;;;4988375;28;20042;-47
2022/08/02 06:09:06;;;;;;;12.02;2.42;;;;;;;;;;4987836;28;20581;-49
2022/08/02 06:11:42;;;;;;;9.15;3.55;;;;;;;;;;4987646;28;20564;-49
2022/08/02 06:14:08;;;;;;;6.10;3.40;;;;;;;;;;4987452;28;20077;-49
2022/08/02 06:16:34;;;;;;;7.45;5.28;;;;;;;;;;4988135;28;20065;-46
2022/08/02 06:19:00;;;;;;;5.22;3.45;;;;;;;;;;4987668;28;20560;-52
2022/08/02 06:21:25;;;;;;;6.38;4.28;;;;;;;;;;4988047;28;20049;-52
2022/08/02 06:23:51;;;;;;;6.85;2.92;;;;;;;;;;4988294;28;20077;-52
2022/08/02 06:26:17;;;;;;;6.88;3.17;;;;;;;;;;4987888;28;20066;-49
2022/08/02 06:28:42;;;;;;;3.70;2.33;;;;;;;;;;4987775;28;20065;-46
2022/08/02 06:31:08;;;;;;;4.75;3.30;;;;;;;;;;4989682;28;20129;-49
2022/08/02 06:33:33;;;;;;;17.13;6.10;;;;;;;;;;4989080;28;20127;-49
2022/08/02 06:35:58;;;;;;;8.20;3.90;;;;;;;;;;4988851;28;20053;-48
2022/08/02 06:38:26;;;;;;;19.17;4.28;;;;;;;;;;4987940;28;20057;-51
2022/08/02 06:41:03;;;;;;;7.20;3.08;;;;;;;;;;4988902;28;20598;-53
2022/08/02 06:43:32;;;;;;;5.28;3.25;;;;;;;;;;4989309;28;20531;-48
2022/08/02 06:45:57;;;;;;;2.45;2.20;;;;;;;;;;4987759;28;20113;-52
2022/08/02 06:48:22;;;;;;;6.70;2.80;;;;;;;;;;4989417;28;20126;-52
2022/08/02 06:50:48;;;;;;;4.88;2.60;;;;;;;;;;4988042;28;20667;-50
2022/08/02 06:53:13;;;;;;;12.10;3.97;;;;;;;;;;4987448;28;20063;-50
2022/08/02 06:55:38;;;;;;;14.27;5.22;;;;;;;;;;4988465;28;20042;-50
2022/08/02 06:58:04;;;;;;;8.50;3.88;;;;;;;;;;4988858;28;20105;-53
2022/08/02 07:00:30;;;;;;;10.32;4.53;;;;;;;;;;4988758;28;20045;-48
2022/08/02 07:02:55;;;;;;;8.73;4.18;;;;;;;;;;4988648;28;20042;-52
2022/08/02 07:05:20;;;;;;;4.75;2.83;;;;;;;;;;4988327;28;20092;-51
2022/08/02 07:07:46;;;;;;;11.00;3.08;;;;;;;;;;4988696;28;20081;-52
2022/08/02 07:10:12;;;;;;;14.32;4.60;;;;;;;;;;4988880;28;20129;-51
2022/08/02 07:12:37;;;;;;;23.15;9.20;;;;;;;;;;4988904;28;20054;-47
2022/08/02 07:15:04;;;;;;;13.35;7.53;;;;;;;;;;4970554;28;20381;-50
2022/08/02 07:17:30;;;;;;;17.77;8.38;;;;;;;;;;4970940;28;20054;-51
2022/08/02 07:19:55;;;;;;;27.45;12.60;;;;;;;;;;4986562;28;20529;-52
2022/08/02 07:22:22;;;;;;;39.65;17.17;;;;;;;;;;4988211;28;20561;-54
2022/08/02 07:24:47;;;;;;;22.75;13.30;;;;;;;;;;4987604;28;20038;-53
2022/08/02 07:27:13;;;;;;;34.15;10.35;;;;;;;;;;4988712;28;20513;-48
2022/08/02 07:29:38;;;;;;;14.55;7.50;;;;;;;;;;4987860;28;20675;-51
2022/08/02 07:32:04;;;;;;;15.05;7.10;;;;;;;;;;4988430;28;20146;-52
2022/08/02 07:34:29;;;;;;;12.85;3.97;;;;;;;;;;4988335;28;20129;-52
2022/08/02 07:36:55;;;;;;;8.65;3.80;;;;;;;;;;4988277;28;20054;-54
2022/08/02 07:39:20;;;;;;;2.97;2.38;;;;;;;;;;4987923;28;20065;-52
2022/08/02 07:41:46;;;;;;;7.18;1.85;;;;;;;;;;4988308;28;20081;-54
2022/08/02 07:44:11;;;;;;;2.28;1.70;;;;;;;;;;4987087;28;20050;-54
2022/08/02 07:46:37;;;;;;;2.22;1.50;;;;;;;;;;4988183;28;20054;-56
2022/08/02 07:49:02;;;;;;;3.20;2.20;;;;;;;;;;4987850;28;20044;-56
2022/08/02 07:51:27;;;;;;;5.97;3.67;;;;;;;;;;4987356;28;20039;-56
2022/08/02 07:53:53;;;;;;;7.25;2.67;;;;;;;;;;4987663;28;20054;-56
2022/08/02 07:56:18;;;;;;;4.93;1.85;;;;;;;;;;4985906;28;20081;-54
2022/08/02 07:58:44;;;;;;;69.25;15.00;;;;;;;;;;4987285;28;20195;-55
2022/08/02 08:01:09;;;;;;;28.10;7.90;;;;;;;;;;4987851;28;20518;-57
2022/08/02 08:03:34;;;;;;;19.33;4.03;;;;;;;;;;4986955;28;20051;-55
2022/08/02 08:06:00;;;;;;;7.53;4.45;;;;;;;;;;4987944;28;20550;-57
2022/08/02 08:08:25;;;;;;;5.88;3.83;;;;;;;;;;4985979;28;20573;-57
2022/08/02 08:10:51;;;;;;;11.13;4.15;;;;;;;;;;4986553;28;20057;-56
2022/08/02 08:13:16;;;;;;;17.20;4.22;;;;;;;;;;4987323;28;20061;-56
2022/08/02 08:15:42;;;;;;;6.07;2.53;;;;;;;;;;4987037;28;20113;-56
2022/08/02 08:18:14;;;;;;;3.88;2.03;;;;;;;;;;5168787;27;20218;-57
2022/08/02 08:20:39;;;;;;;2.78;1.50;;;;;;;;;;5165749;27;20072;-58
2022/08/02 08:23:05;;;;;;;2.15;1.80;;;;;;;;;;5165810;27;20121;-58
2022/08/02 08:25:30;;;;;;;7.35;2.45;;;;;;;;;;5164533;27;20053;-58
2022/08/02 08:27:55;;;;;;;2.00;1.33;;;;;;;;;;5168664;27;20062;-58
2022/08/02 08:30:21;;;;;;;5.80;1.77;;;;;;;;;;5164647;27;20042;-58
2022/08/02 08:32:47;;;;;;;1.98;1.60;;;;;;;;;;5165682;27;20580;-58
2022/08/02 08:35:12;;;;;;;4.40;2.38;;;;;;;;;;5165026;27;20045;-58
2022/08/02 08:37:38;;;;;;;329.15;76.40;;;;;;;;;;5161069;27;20390;-58
2022/08/02 08:40:07;;;;;;;53.17;8.73;;;;;;;;;;5165309;27;20035;-59
2022/08/02 08:42:34;;;;;;;7.38;2.00;;;;;;;;;;5163881;27;20038;-59
2022/08/02 08:45:00;;;;;;;20.13;3.65;;;;;;;;;;5164985;27;20512;-60
2022/08/02 08:47:32;;;;;;;3.35;1.83;;;;;;;;;;5165855;27;20061;-59
2022/08/02 08:50:00;;;;;;;6.03;1.67;;;;;;;;;;5164944;27;20069;-59
2022/08/02 08:52:26;;;;;;;5.68;2.67;;;;;;;;;;5166808;27;20526;-59
2022/08/02 08:54:52;;;;;;;5.03;1.52;;;;;;;;;;5146579;27;20505;-60
2022/08/02 08:57:19;;;;;;;19.48;2.15;;;;;;;;;;5165319;27;20050;-59
2022/08/02 08:59:44;;;;;;;3.78;2.65;;;;;;;;;;5164630;27;20066;-59
2022/08/02 09:02:10;;;;;;;2.65;1.13;;;;;;;;;;5165423;27;20065;-59
2022/08/02 09:04:35;;;;;;;2.72;1.70;;;;;;;;;;5165546;27;20180;-59
2022/08/02 09:07:00;;;;;;;4.15;2.35;;;;;;;;;;5166462;27;20404;-60
2022/08/02 09:09:26;;;;;;;6.72;1.48;;;;;;;;;;5167620;27;20130;-59
2022/08/02 09:11:51;;;;;;;4.40;2.45;;;;;;;;;;5167239;27;20330;-58
2022/08/02 09:14:27;;;;;;;2.10;1.27;;;;;;;;;;5164354;27;20050;-59
2022/08/02 09:17:04;;;;;;;9.38;2.05;;;;;;;;;;5164773;27;20046;-59
2022/08/02 09:19:29;;;;;;;5.20;2.58;;;;;;;;;;5164176;27;20038;-59
2022/08/02 09:22:08;;;;;;;2.72;1.85;;;;;;;;;;5164156;27;20058;-59
2022/08/02 09:24:44;;;;;;;2.38;1.50;;;;;;;;;;5161570;27;20046;-59
2022/08/02 09:27:14;;;;;;;5.97;2.00;;;;;;;;;;5164737;27;20570;-59
2022/08/02 09:29:40;;;;;;;3.78;1.50;;;;;;;;;;5151218;27;20042;-59
2022/08/02 09:32:06;;;;;;;2.80;1.58;;;;;;;;;;5150927;27;20107;-59
2022/08/02 09:34:45;;;;;;;5.05;2.97;;;;;;;;;;5151747;27;20548;-59
2022/08/02 09:37:30;;;;;;;6.35;1.58;;;;;;;;;;5150892;27;20091;-59
2022/08/02 09:39:59;;;;;;;19.13;2.53;;;;;;;;;;5151226;27;20211;-58
2022/08/02 09:42:33;;;;;;;10.55;3.50;;;;;;;;;;5150198;27;20113;-59
2022/08/02 09:44:59;;;;;;;2.08;0.88;;;;;;;;;;5151127;27;20041;-59
2022/08/02 09:47:26;;;;;;;9.07;2.35;;;;;;;;;;5151712;27;20195;-58
2022/08/02 09:49:53;;;;;;;12.45;2.05;;;;;;;;;;5150956;27;20122;-60
2022/08/02 09:52:25;;;;;;;3.17;1.25;;;;;;;;;;5150044;27;20514;-59
2022/08/02 09:54:54;;;;;;;3.53;2.28;;;;;;;;;;5150204;27;20561;-58
2022/08/02 09:57:24;;;;;;;2.47;1.65;;;;;;;;;;5150270;27;20148;-58
2022/08/02 09:59:56;;;;;;;4.65;1.17;;;;;;;;;;5150958;27;20047;-59
2022/08/02 10:02:22;;;;;;;2.45;1.40;;;;;;;;;;5146676;27;20051;-59
2022/08/02 10:04:47;;;;;;;13.43;3.17;;;;;;;;;;5149392;27;20065;-59
2022/08/02 10:07:13;;;;;;;3.60;2.80;;;;;;;;;;5150541;27;20038;-59
2022/08/02 10:09:38;;;;;;;1.77;0.95;;;;;;;;;;5152778;27;20157;-59
2022/08/02 10:12:04;;;;;;;2.58;1.70;;;;;;;;;;5147970;27;20046;-59
2022/08/02 10:14:31;;;;;;;4.32;2.72;;;;;;;;;;5150261;27;20041;-60
2022/08/02 10:16:57;;;;;;;2.92;1.88;;;;;;;;;;5149158;27;20057;-59
2022/08/02 10:19:23;;;;;;;4.60;2.28;;;;;;;;;;5151539;27;20055;-59
2022/08/02 10:21:56;;;;;;;3.63;1.90;;;;;;;;;;5151086;27;20043;-60
2022/08/02 10:24:23;;;;;;;3.80;1.35;;;;;;;;;;5149605;27;20075;-58
2022/08/02 10:26:49;;;;;;;1.35;0.98;;;;;;;;;;5150957;27;20129;-59
2022/08/02 10:29:16;;;;;;;1.95;1.08;;;;;;;;;;5150638;27;20142;-59
2022/08/02 10:31:57;;;;;;;2.72;1.95;;;;;;;;;;5150277;27;20145;-59
2022/08/02 10:34:28;;;;;;;3.08;1.80;;;;;;;;;;5151684;27;20046;-58
2022/08/02 10:36:53;;;;;;;;;;;;;;;;;;5149612;27;20587;-59
2022/08/02 10:39:18;;;;;;;1.60;0.97;;;;;;;;;;5149570;27;19918;-59
2022/08/02 10:41:48;;;;;;;1.63;1.00;;;;;;;;;;5150180;27;20201;-59
2022/08/02 10:44:30;;;;;;;1.95;0.98;;;;;;;;;;5149655;27;20039;-59
2022/08/02 10:47:14;;;;;;;4.38;1.65;;;;;;;;;;5147269;27;20050;-59
2022/08/02 10:49:55;;;;;;;1.60;1.25;;;;;;;;;;5151622;27;20073;-59
2022/08/02 10:52:25;;;;;;;2.40;1.25;;;;;;;;;;5149953;27;20509;-59
2022/08/02 10:54:57;;;;;;;2.90;1.60;;;;;;;;;;5149550;27;20054;-60
2022/08/02 10:57:27;;;;;;;7.05;1.17;;;;;;;;;;5150077;27;20509;-58
2022/08/02 10:59:57;;;;;;;2.03;1.42;;;;;;;;;;5149372;27;20066;-59
2022/08/02 11:02:45;;;;;;;1.93;1.07;;;;;;;;;;5149562;27;20034;-59
2022/08/02 11:05:29;;;;;;;1.95;1.48;;;;;;;;;;5135989;27;20091;-59
2022/08/02 11:07:55;;;;;;;1.90;0.93;;;;;;;;;;5148471;27;20060;-59
2022/08/02 11:10:23;;;;;;;2.10;1.10;;;;;;;;;;5148544;27;20050;-60
2022/08/02 11:13:00;;;;;;;2.42;1.40;;;;;;;;;;5148944;27;20042;-59
2022/08/02 11:15:26;;;;;;;3.42;2.42;;;;;;;;;;5148766;27;20940;-58
2022/08/02 11:17:51;;;;;;;0.82;0.57;;;;;;;;;;5148605;27;20133;-59
2022/08/02 11:20:18;;;;;;;6.00;1.65;;;;;;;;;;5149444;27;20039;-59
2022/08/02 11:22:44;;;;;;;1.42;0.93;;;;;;;;;;5149608;27;20054;-59
2022/08/02 11:25:21;;;;;;;2.35;1.60;;;;;;;;;;5149810;27;20145;-59
2022/08/02 11:27:47;;;;;;;6.80;2.38;;;;;;;;;;5147830;27;20038;-59
2022/08/02 11:30:13;;;;;;;2.35;1.73;;;;;;;;;;5148565;27;20542;-59
2022/08/02 11:32:38;;;;;;;6.07;1.60;;;;;;;;;;5148195;27;20504;-59
2022/08/02 11:35:04;;;;;;;2.08;1.35;;;;;;;;;;5149476;27;20124;-60
2022/08/02 11:37:35;;;;;;;2.75;1.83;;;;;;;;;;5148014;27;20042;-59
2022/08/02 11:40:00;;;;;;;2.13;1.50;;;;;;;;;;5145549;27;20077;-59
2022/08/02 11:42:33;;;;;;;5.18;0.80;;;;;;;;;;5144824;27;20595;-59
2022/08/02 11:44:58;;;;;;;2.33;1.65;;;;;;;;;;5145503;27;20558;-59
2022/08/02 11:47:24;;;;;;;2.63;1.77;;;;;;;;;;5149062;27;20039;-59
2022/08/02 11:49:49;;;;;;;2.40;1.13;;;;;;;;;;5152942;27;20546;-59
2022/08/02 11:52:15;;;;;;;2.22;0.93;;;;;;;;;;5149772;27;20053;-59
2022/08/02 11:54:41;;;;;;;12.05;2.92;;;;;;;;;;5148333;27;20037;-59
2022/08/02 11:57:16;;;;;;;2.33;1.00;;;;;;;;;;5147810;27;20046;-59
2022/08/02 11:59:42;;;;;;;1.48;0.90;;;;;;;;;;5149985;27;20558;-59
2022/08/02 12:02:08;;;;;;;1.63;1.23;;;;;;;;;;5150965;27;20046;-59
2022/08/02 12:04:33;;;;;;;2.03;1.45;;;;;;;;;;5129061;27;20580;-59
2022/08/02 12:06:59;;;;;;;1.42;0.98;;;;;;;;;;5148391;27;20038;-59
2022/08/02 12:09:29;;;;;;;1.88;1.02;;;;;;;;;;5149041;27;20053;-59
2022/08/02 12:11:55;;;;;;;3.20;1.27;;;;;;;;;;5150653;27;20145;-58
2022/08/02 12:14:21;;;;;;;11.90;2.05;;;;;;;;;;5149131;27;20177;-59
2022/08/02 12:19:30;;;;;;;2.45;1.80;;;;;;;;;;5143674;27;20145;-59
2022/08/02 12:22:11;;;;;;;4.32;1.25;;;;;;;;;;5149056;27;20560;-58
2022/08/02 12:24:37;;;;;;;1.83;1.23;;;;;;;;;;5147207;27;20039;-59
2022/08/02 12:27:02;;;;;;;2.55;1.42;;;;;;;;;;5149211;27;20053;-59
2022/08/02 12:29:31;;;;;;;1.52;0.93;;;;;;;;;;5148805;27;20050;-59
2022/08/02 12:31:57;;;;;;;2.65;1.85;;;;;;;;;;5147615;27;20075;-59
2022/08/02 12:34:23;;;;;;;5.45;1.45;;;;;;;;;;5147959;27;20042;-59
2022/08/02 12:36:59;;;;;;;2.95;1.80;;;;;;;;;;5147515;27;20055;-59
2022/08/02 12:39:38;;;;;;;2.28;1.73;;;;;;;;;;5147237;27;20019;-59
2022/08/02 12:42:05;;;;;;;6.22;1.55;;;;;;;;;;5147793;27;20043;-59
2022/08/02 12:44:30;;;;;;;1.70;1.40;;;;;;;;;;5147016;27;20031;-58
2022/08/02 12:47:03;;;;;;;1.52;1.27;;;;;;;;;;5143383;27;20046;-59
2022/08/02 12:49:28;;;;;;;6.82;1.27;;;;;;;;;;5148182;27;20135;-59
2022/08/02 12:51:54;;;;;;;3.38;1.90;;;;;;;;;;5147228;27;20502;-61
2022/08/02 12:54:21;;;;;;;1.08;0.82;;;;;;;;;;5147661;27;20049;-58
2022/08/02 12:56:46;;;;;;;3.00;1.88;;;;;;;;;;5147154;27;20406;-59
2022/08/02 12:59:12;;;;;;;3.42;1.67;;;;;;;;;;5147710;27;20425;-59
2022/08/02 13:01:37;;;;;;;2.75;1.55;;;;;;;;;;5148069;27;20038;-59
2022/08/02 13:04:03;;;;;;;2.03;1.13;;;;;;;;;;5149841;27;20049;-59
2022/08/02 13:06:28;;;;;;;1.45;0.95;;;;;;;;;;5151942;27;20045;-59
2022/08/02 13:08:54;;;;;;;2.90;1.83;;;;;;;;;;5152419;27;20039;-59
2022/08/02 13:11:20;;;;;;;13.27;2.97;;;;;;;;;;5150531;27;20062;-59
2022/08/02 13:13:45;;;;;;;3.03;1.83;;;;;;;;;;5151522;27;20549;-59
2022/08/02 13:16:11;;;;;;;1.45;0.95;;;;;;;;;;5151389;27;20514;-59
2022/08/02 13:18:37;;;;;;;1.65;1.15;;;;;;;;;;5150748;27;20053;-59
2022/08/02 13:21:05;;;;;;;1.95;1.50;;;;;;;;;;5151350;27;20041;-58
2022/08/02 13:23:31;;;;;;;6.50;1.23;;;;;;;;;;5152050;27;20488;-59
2022/08/02 13:25:56;;;;;;;1.15;1.00;;;;;;;;;;5151278;27;20042;-58
2022/08/02 13:28:22;;;;;;;2.85;1.95;;;;;;;;;;5152984;27;20368;-59
2022/08/02 13:30:47;;;;;;;3.88;1.20;;;;;;;;;;5153752;27;20046;-58
2022/08/02 13:33:13;;;;;;;1.50;1.10;;;;;;;;;;5148074;27;20043;-59
2022/08/02 13:35:38;;;;;;;3.10;1.17;;;;;;;;;;5152312;27;20512;-59
2022/08/02 13:38:05;;;;;;;2.88;1.77;;;;;;;;;;5153670;27;20484;-59
2022/08/02 13:40:30;;;;;;;2.85;1.25;;;;;;;;;;5150026;27;20064;-59
2022/08/02 13:42:56;;;;;;;9.95;1.45;;;;;;;;;;5152126;27;20099;-59
2022/08/02 13:45:21;;;;;;;2.38;1.52;;;;;;;;;;5153087;27;20494;-57
2022/08/02 13:47:48;;;;;;;4.53;2.05;;;;;;;;;;5149814;27;20437;-58
2022/08/02 13:50:13;;;;;;;2.10;1.90;;;;;;;;;;5150801;27;20497;-59
2022/08/02 13:52:38;;;;;;;1.42;1.02;;;;;;;;;;5151704;27;20042;-58
2022/08/02 13:55:04;;;;;;;1.50;1.02;;;;;;;;;;5152070;27;20078;-57
2022/08/02 13:57:29;;;;;;;1.42;1.08;;;;;;;;;;5150980;27;20042;-57
2022/08/02 13:59:55;;;;;;;1.60;1.13;;;;;;;;;;5150176;27;20069;-57
2022/08/02 14:02:20;;;;;;;2.25;1.48;;;;;;;;;;5151630;27;20052;-57
2022/08/02 14:04:45;;;;;;;3.00;1.77;;;;;;;;;;5151195;27;20113;-57
2022/08/02 14:07:11;;;;;;;2.65;1.13;;;;;;;;;;5149523;27;20557;-58
2022/08/02 14:09:37;;;;;;;1.88;1.35;;;;;;;;;;5151065;27;20141;-58
2022/08/02 14:12:03;;;;;;;8.13;2.63;;;;;;;;;;5149741;27;20742;-58
2022/08/02 14:14:28;;;;;;;2.10;1.15;;;;;;;;;;5149708;27;20047;-58
2022/08/02 14:16:54;;;;;;;3.67;1.80;;;;;;;;;;5150446;27;20054;-58
2022/08/02 14:19:20;;;;;;;2.00;1.40;;;;;;;;;;5150279;27;20035;-58
2022/08/02 14:21:46;;;;;;;3.58;1.33;;;;;;;;;;5150618;27;20069;-58
2022/08/02 14:24:11;;;;;;;1.90;1.20;;;;;;;;;;5150025;27;20050;-57
2022/08/02 14:26:37;;;;;;;3.88;1.73;;;;;;;;;;5150145;27;20043;-57
2022/08/02 14:29:03;;;;;;;2.85;0.80;;;;;;;;;;5151033;27;20081;-58
2022/08/02 14:31:28;;;;;;;1.20;0.70;;;;;;;;;;5151253;27;20054;-58
2022/08/02 14:33:53;;;;;;;1.63;1.30;;;;;;;;;;5148850;27;20038;-58
2022/08/02 14:36:19;;;;;;;1.58;1.15;;;;;;;;;;5149900;27;20631;-58
2022/08/02 14:38:44;;;;;;;2.17;1.63;;;;;;;;;;5150529;27;20451;-57
2022/08/02 14:41:09;;;;;;;3.50;1.77;;;;;;;;;;5151531;27;20489;-57
2022/08/02 14:46:18;;;;;;;1.77;1.33;;;;;;;;;;5151910;27;20041;-58
2022/08/02 14:48:43;;;;;;;1.65;0.80;;;;;;;;;;5148411;27;20046;-58
2022/08/02 14:51:09;;;;;;;1.80;0.90;;;;;;;;;;5151194;27;20042;-58